createdAt,value
2022-11-28T00:01:42.040Z,5.76
2022-11-28T00:04:11.081Z,5.74
2022-11-28T00:06:45.407Z,5.72
2022-11-28T00:09:14.957Z,5.70
2022-11-28T00:11:44.905Z,5.69
2022-11-28T00:14:13.652Z,5.68
2022-11-28T00:16:42.743Z,5.70
2022-11-28T00:19:12.584Z,5.73
2022-11-28T00:21:41.768Z,5.77
2022-11-28T00:24:09.958Z,5.82
2022-11-28T00:26:40.561Z,5.84
2022-11-28T00:29:10.458Z,5.85
2022-11-28T00:31:42.757Z,5.86
2022-11-28T00:34:13.619Z,5.83
2022-11-28T00:36:44.585Z,5.80
2022-11-28T00:39:13.142Z,5.77
2022-11-28T00:41:41.763Z,5.75
2022-11-28T00:44:11.474Z,5.72
2022-11-28T00:46:39.775Z,5.71
2022-11-28T00:49:08.242Z,5.69
2022-11-28T00:51:36.730Z,5.70
2022-11-28T00:54:06.216Z,5.70
2022-11-28T00:56:37.544Z,5.68
2022-11-28T00:59:06.253Z,5.67
2022-11-28T01:01:38.605Z,5.67
2022-11-28T01:04:09.944Z,5.66
2022-11-28T01:06:41.922Z,5.64
2022-11-28T01:09:19.683Z,5.59
2022-11-28T01:11:49.275Z,5.56
2022-11-28T01:14:21.826Z,5.56
2022-11-28T01:16:50.189Z,5.56
2022-11-28T01:19:18.418Z,5.56
2022-11-28T01:21:47.183Z,5.56
2022-11-28T01:24:15.469Z,5.60
2022-11-28T01:26:43.741Z,5.63
2022-11-28T01:29:12.319Z,5.63
2022-11-28T01:31:41.172Z,5.65
2022-11-28T01:34:09.446Z,5.67
2022-11-28T01:36:37.301Z,5.69
2022-11-28T01:39:06.407Z,5.71
2022-11-28T01:41:34.725Z,5.71
2022-11-28T01:44:25.945Z,5.69
2022-11-28T01:46:53.854Z,5.69
2022-11-28T01:49:31.861Z,5.70
2022-11-28T01:52:07.212Z,5.71
2022-11-28T01:54:36.411Z,5.71
2022-11-28T01:57:12.565Z,5.70
2022-11-28T01:59:45.637Z,5.70
2022-11-28T02:02:20.293Z,5.71
2022-11-28T02:04:50.597Z,5.71
2022-11-28T02:07:20.798Z,5.70
2022-11-28T02:09:48.881Z,5.66
2022-11-28T02:12:23.011Z,5.62
2022-11-28T02:14:53.937Z,5.62
2022-11-28T02:17:50.056Z,5.62
2022-11-28T02:20:33.065Z,5.60
2022-11-28T02:23:28.472Z,5.61
2022-11-28T02:26:31.648Z,5.63
2022-11-28T02:29:36.380Z,5.67
2022-11-28T02:32:23.404Z,5.67
2022-11-28T02:35:06.521Z,5.59
2022-11-28T02:38:00.711Z,5.54
2022-11-28T02:40:39.226Z,5.51
2022-11-28T02:43:11.800Z,5.52
2022-11-28T02:45:50.315Z,5.52
2022-11-28T02:48:37.932Z,5.53
2022-11-28T02:51:21.137Z,5.53
2022-11-28T02:53:51.093Z,5.54
2022-11-28T02:56:19.659Z,5.52
2022-11-28T02:58:47.577Z,5.51
2022-11-28T03:01:21.184Z,5.51
2022-11-28T03:04:12.383Z,5.51
2022-11-28T03:07:04.118Z,5.50
2022-11-28T03:10:01.403Z,5.48
2022-11-28T03:12:42.048Z,5.46
2022-11-28T03:15:13.259Z,5.45
2022-11-28T03:18:07.646Z,5.44
2022-11-28T03:20:46.393Z,5.45
2022-11-28T03:23:37.430Z,5.47
2022-11-28T03:26:25.079Z,5.48
2022-11-28T03:29:26.044Z,5.48
2022-11-28T03:31:59.770Z,5.45
2022-11-28T03:34:37.645Z,5.45
2022-11-28T03:37:13.978Z,5.47
2022-11-28T03:39:46.919Z,5.46
2022-11-28T03:42:21.137Z,5.45
2022-11-28T03:44:59.223Z,5.45
2022-11-28T03:47:31.544Z,5.44
2022-11-28T03:50:06.944Z,5.44
2022-11-28T03:52:46.540Z,5.41
2022-11-28T03:55:22.453Z,5.38
2022-11-28T03:58:10.508Z,5.37
2022-11-28T04:00:58.611Z,5.35
2022-11-28T04:03:52.349Z,5.32
2022-11-28T04:06:26.216Z,5.26
2022-11-28T04:09:23.272Z,5.24
2022-11-28T04:11:59.328Z,5.23
2022-11-28T04:14:34.901Z,5.24
2022-11-28T04:17:16.090Z,5.26
2022-11-28T04:19:50.826Z,5.28
2022-11-28T04:22:25.216Z,5.28
2022-11-28T04:24:57.686Z,5.29
2022-11-28T04:27:35.139Z,5.28
2022-11-28T04:30:05.712Z,5.25
2022-11-28T04:32:36.586Z,5.22
2022-11-28T04:35:17.050Z,5.19
2022-11-28T04:37:48.862Z,5.16
2022-11-28T04:40:20.328Z,5.13
2022-11-28T04:42:53.795Z,5.09
2022-11-28T04:45:28.368Z,5.07
2022-11-28T04:47:56.990Z,5.04
2022-11-28T04:50:31.918Z,5.01
2022-11-28T04:53:09.639Z,4.99
2022-11-28T04:55:49.333Z,4.94
2022-11-28T04:58:36.256Z,4.90
2022-11-28T05:01:10.101Z,4.87
2022-11-28T05:03:42.830Z,4.84
2022-11-28T05:06:11.472Z,4.84
2022-11-28T05:08:39.814Z,4.82
2022-11-28T05:11:07.915Z,4.82
2022-11-28T05:13:35.818Z,4.83
2022-11-28T05:16:06.079Z,4.87
2022-11-28T05:18:34.003Z,4.90
2022-11-28T05:21:01.802Z,4.91
2022-11-28T05:23:29.765Z,4.87
2022-11-28T05:25:57.985Z,4.82
2022-11-28T05:28:26.220Z,4.78
2022-11-28T05:30:59.367Z,4.76
2022-11-28T05:33:29.467Z,4.74
2022-11-28T05:36:05.487Z,4.85
2022-11-28T05:38:37.594Z,4.90
2022-11-28T05:41:06.217Z,4.87
2022-11-28T05:43:34.272Z,4.88
2022-11-28T05:46:05.777Z,4.91
2022-11-28T05:48:34.094Z,4.93
2022-11-28T05:51:05.468Z,4.94
2022-11-28T05:53:34.039Z,4.93
2022-11-28T05:56:10.029Z,4.94
2022-11-28T05:58:38.681Z,4.95
2022-11-28T06:01:15.696Z,4.95
2022-11-28T06:03:44.685Z,4.96
2022-11-28T06:06:15.615Z,4.96
2022-11-28T06:08:44.816Z,4.96
2022-11-28T06:11:15.000Z,4.97
2022-11-28T06:13:44.769Z,4.99
2022-11-28T06:16:17.648Z,5.05
2022-11-28T06:18:46.195Z,5.11
2022-11-28T06:21:15.544Z,5.13
2022-11-28T06:23:43.821Z,5.16
2022-11-28T06:26:15.502Z,5.17
2022-11-28T06:28:44.311Z,5.17
2022-11-28T06:31:24.521Z,5.16
2022-11-28T06:33:53.191Z,5.14
2022-11-28T06:36:21.406Z,5.12
2022-11-28T06:38:49.504Z,5.10
2022-11-28T06:41:20.070Z,5.12
2022-11-28T06:43:48.326Z,5.13
2022-11-28T06:46:19.444Z,5.13
2022-11-28T06:48:49.462Z,5.12
2022-11-28T06:51:20.153Z,5.15
2022-11-28T06:53:48.953Z,5.19
2022-11-28T06:56:19.711Z,5.23
2022-11-28T06:58:53.412Z,5.25
2022-11-28T07:01:23.416Z,5.27
2022-11-28T07:03:54.372Z,5.30
2022-11-28T07:06:25.142Z,5.31
2022-11-28T07:08:54.038Z,5.34
2022-11-28T07:11:31.757Z,5.37
2022-11-28T07:14:02.873Z,5.39
2022-11-28T07:16:33.445Z,5.41
2022-11-28T07:19:01.548Z,5.43
2022-11-28T07:21:29.959Z,5.44
2022-11-28T07:23:59.261Z,5.47
2022-11-28T07:26:27.675Z,5.52
2022-11-28T07:28:58.369Z,5.55
2022-11-28T07:31:32.383Z,5.58
2022-11-28T07:34:03.440Z,5.63
2022-11-28T07:36:32.419Z,5.68
2022-11-28T07:39:03.624Z,5.73
2022-11-28T07:41:32.173Z,5.92
2022-11-28T07:44:02.627Z,6.26
2022-11-28T07:46:32.577Z,6.32
2022-11-28T07:49:01.551Z,6.34
2022-11-28T07:51:32.095Z,6.37
2022-11-28T07:54:01.735Z,6.41
2022-11-28T07:56:57.163Z,6.46
2022-11-28T07:59:21.441Z,6.49
2022-11-28T08:01:50.140Z,6.51
2022-11-28T08:04:18.467Z,6.49
2022-11-28T08:06:46.360Z,6.48
2022-11-28T08:09:14.616Z,6.47
2022-11-28T08:11:43.294Z,6.48
2022-11-28T08:14:11.649Z,6.48
2022-11-28T08:16:45.363Z,6.48
2022-11-28T08:19:13.848Z,6.49
2022-11-28T08:21:42.378Z,6.53
2022-11-28T08:24:11.840Z,6.58
2022-11-28T08:26:40.185Z,6.60
2022-11-28T08:29:08.219Z,6.58
2022-11-28T08:31:38.380Z,6.60
2022-11-28T08:34:08.847Z,6.61
2022-11-28T08:36:37.534Z,6.63
2022-11-28T08:42:00.135Z,6.59
2022-11-28T08:44:30.406Z,6.53
2022-11-28T08:46:58.815Z,6.50
2022-11-28T08:49:27.063Z,6.47
2022-11-28T08:51:54.927Z,6.42
2022-11-28T08:54:22.973Z,6.39
2022-11-28T08:56:51.106Z,6.38
2022-11-28T08:59:19.289Z,6.38
2022-11-28T09:01:47.442Z,6.38
2022-11-28T09:04:15.705Z,6.38
2022-11-28T09:06:43.548Z,6.37
2022-11-28T09:09:11.848Z,6.31
2022-11-28T09:11:40.311Z,6.61
2022-11-28T09:14:08.939Z,7.26
2022-11-28T09:16:39.445Z,7.27
2022-11-28T09:19:09.491Z,7.17
2022-11-28T09:21:38.131Z,7.04
2022-11-28T09:24:07.046Z,6.93
2022-11-28T09:26:35.175Z,6.82
2022-11-28T09:29:03.422Z,6.74
2022-11-28T09:31:31.462Z,6.65
2022-11-28T09:33:59.732Z,6.58
2022-11-28T09:36:28.617Z,6.50
2022-11-28T09:38:56.639Z,6.43
2022-11-28T09:41:40.058Z,6.40
2022-11-28T09:44:26.747Z,6.36
2022-11-28T09:47:00.316Z,6.37
2022-11-28T09:49:42.213Z,6.36
2022-11-28T09:52:36.278Z,6.32
2022-11-28T09:55:16.220Z,6.29
2022-11-28T09:57:49.272Z,6.29
2022-11-28T10:00:32.964Z,6.31
2022-11-28T10:03:19.308Z,6.36
2022-11-28T10:06:07.643Z,6.40
2022-11-28T10:08:43.186Z,6.42
2022-11-28T10:11:44.193Z,6.42
2022-11-28T10:14:57.111Z,6.43
2022-11-28T10:17:43.256Z,6.39
2022-11-28T10:20:18.807Z,6.37
2022-11-28T10:22:54.814Z,6.38
2022-11-28T10:25:29.467Z,6.37
2022-11-28T10:27:58.022Z,6.37
2022-11-28T10:30:37.256Z,6.41
2022-11-28T10:33:09.847Z,6.48
2022-11-28T10:35:58.412Z,6.52
2022-11-28T10:38:29.077Z,6.54
2022-11-28T10:41:00.169Z,6.61
2022-11-28T10:44:06.864Z,6.70
2022-11-28T10:47:04.614Z,6.75
2022-11-28T10:49:50.754Z,6.82
2022-11-28T10:52:31.548Z,6.88
2022-11-28T10:55:11.767Z,6.92
2022-11-28T10:58:07.581Z,6.96
2022-11-28T11:00:36.877Z,6.99
2022-11-28T11:03:06.119Z,7.00
2022-11-28T11:05:36.702Z,7.03
2022-11-28T11:08:43.341Z,7.07
2022-11-28T11:11:31.919Z,7.11
2022-11-28T11:14:07.469Z,7.15
2022-11-28T11:16:56.938Z,7.22
2022-11-28T11:19:31.102Z,7.28
2022-11-28T11:22:19.001Z,7.33
2022-11-28T11:25:16.948Z,7.38
2022-11-28T11:27:53.695Z,7.47
2022-11-28T11:30:34.898Z,7.51
2022-11-28T11:33:06.312Z,7.52
2022-11-28T11:35:37.338Z,7.54
2022-11-28T11:38:14.211Z,7.56
2022-11-28T11:40:42.717Z,7.58
2022-11-28T11:43:32.401Z,7.59
2022-11-28T11:46:11.447Z,7.61
2022-11-28T11:48:43.613Z,7.62
2022-11-28T11:51:22.760Z,7.63
2022-11-28T11:54:20.356Z,7.66
2022-11-28T11:56:56.738Z,7.64
2022-11-28T11:59:42.627Z,7.61
2022-11-28T12:02:30.406Z,7.61
2022-11-28T12:05:09.945Z,7.67
2022-11-28T12:08:15.719Z,7.81
2022-11-28T12:10:50.923Z,7.97
2022-11-28T12:13:24.264Z,8.05
2022-11-28T12:15:55.192Z,8.11
2022-11-28T12:18:46.238Z,8.16
2022-11-28T12:21:25.227Z,8.18
2022-11-28T12:24:07.495Z,8.21
2022-11-28T12:26:50.683Z,8.24
2022-11-28T12:29:40.989Z,8.28
2022-11-28T12:32:18.060Z,8.27
2022-11-28T12:35:12.715Z,8.23
2022-11-28T12:38:16.841Z,8.19
2022-11-28T12:41:09.030Z,8.18
2022-11-28T12:44:14.251Z,8.19
2022-11-28T12:47:08.051Z,8.19
2022-11-28T12:49:45.731Z,8.23
2022-11-28T12:52:32.882Z,8.25
2022-11-28T12:55:00.946Z,8.23
2022-11-28T12:57:29.231Z,8.22
2022-11-28T13:00:13.593Z,8.20
2022-11-28T13:03:06.148Z,8.17
2022-11-28T13:05:52.927Z,8.12
2022-11-28T13:08:48.747Z,8.06
2022-11-28T13:11:44.595Z,8.04
2022-11-28T13:14:34.377Z,8.05
2022-11-28T13:17:35.977Z,8.06
2022-11-28T13:20:12.654Z,8.06
2022-11-28T13:22:47.096Z,8.11
2022-11-28T13:25:35.610Z,8.11
2022-11-28T13:28:13.335Z,8.07
2022-11-28T13:30:53.952Z,8.03
2022-11-28T13:33:28.296Z,8.00
2022-11-28T13:35:59.547Z,7.98
2022-11-28T13:39:12.929Z,7.96
2022-11-28T13:42:36.082Z,7.92
2022-11-28T13:44:57.820Z,7.88
2022-11-28T13:47:29.524Z,7.85
2022-11-28T13:50:28.359Z,7.82
2022-11-28T13:53:02.094Z,7.76
2022-11-28T13:55:36.172Z,7.72
2022-11-28T13:58:33.631Z,7.69
2022-11-28T14:01:12.028Z,7.65
2022-11-28T14:03:52.126Z,7.67
2022-11-28T14:06:22.896Z,7.65
2022-11-28T14:09:04.911Z,7.65
2022-11-28T14:11:50.153Z,7.63
2022-11-28T14:14:52.340Z,7.62
2022-11-28T14:17:39.678Z,7.59
2022-11-28T14:20:24.320Z,7.57
2022-11-28T14:23:46.748Z,7.55
2022-11-28T14:26:30.777Z,7.50
2022-11-28T14:28:59.510Z,7.43
2022-11-28T14:31:32.161Z,7.40
2022-11-28T14:34:37.898Z,7.38
2022-11-28T14:37:27.281Z,7.37
2022-11-28T14:39:57.291Z,7.37
2022-11-28T14:42:58.345Z,7.29
2022-11-28T14:45:41.438Z,7.21
2022-11-28T14:48:22.222Z,7.13
2022-11-28T14:50:57.558Z,7.05
2022-11-28T14:53:45.640Z,6.95
2022-11-28T14:56:13.923Z,6.87
2022-11-28T14:58:56.353Z,6.80
2022-11-28T15:01:45.252Z,6.72
2022-11-28T15:04:47.302Z,6.66
2022-11-28T15:07:37.519Z,6.61
2022-11-28T15:10:15.955Z,6.60
2022-11-28T15:12:59.785Z,6.55
2022-11-28T15:15:30.047Z,6.51
2022-11-28T15:18:00.878Z,6.55
2022-11-28T15:20:35.760Z,6.54
2022-11-28T15:23:04.568Z,6.50
2022-11-28T15:25:37.520Z,6.47
2022-11-28T15:28:16.373Z,6.41
2022-11-28T15:30:46.991Z,6.34
2022-11-28T15:33:14.992Z,6.28
2022-11-28T15:36:03.082Z,6.25
2022-11-28T15:38:32.451Z,6.26
2022-11-28T15:41:00.719Z,6.26
2022-11-28T15:43:31.670Z,6.26
2022-11-28T15:46:01.420Z,6.25
2022-11-28T15:48:39.383Z,6.24
2022-11-28T15:51:08.856Z,6.23
2022-11-28T15:53:42.597Z,6.19
2022-11-28T15:56:12.236Z,6.17
2022-11-28T15:58:42.963Z,6.15
2022-11-28T16:01:16.279Z,6.13
2022-11-28T16:03:56.898Z,6.08
2022-11-28T16:06:28.722Z,6.02
2022-11-28T16:09:00.277Z,6.00
2022-11-28T16:11:30.944Z,5.94
2022-11-28T16:14:06.452Z,5.92
2022-11-28T16:16:37.497Z,5.91
2022-11-28T16:19:26.963Z,5.93
2022-11-28T16:22:19.594Z,5.93
2022-11-28T16:24:56.361Z,5.88
2022-11-28T16:27:34.963Z,5.82
2022-11-28T16:30:31.405Z,5.80
2022-11-28T16:32:59.682Z,5.79
2022-11-28T16:35:42.383Z,5.79
2022-11-28T16:38:23.919Z,5.80
2022-11-28T16:40:59.062Z,5.82
2022-11-28T16:43:35.824Z,5.85
2022-11-28T16:46:07.264Z,5.84
2022-11-28T16:48:48.372Z,5.82
2022-11-28T16:51:37.387Z,5.80
2022-11-28T16:54:30.141Z,5.78
2022-11-28T16:57:12.120Z,5.78
2022-11-28T16:59:41.977Z,5.76
2022-11-28T17:02:30.701Z,5.73
2022-11-28T17:04:58.989Z,6.11
2022-11-28T17:07:27.477Z,6.33
2022-11-28T17:09:56.125Z,6.30
2022-11-28T17:12:42.084Z,6.24
2022-11-28T17:15:20.470Z,6.14
2022-11-28T17:17:48.611Z,6.06
2022-11-28T17:20:18.160Z,6.00
2022-11-28T17:22:48.209Z,5.92
2022-11-28T17:25:19.050Z,5.84
2022-11-28T17:27:50.071Z,5.74
2022-11-28T17:30:20.128Z,5.66
2022-11-28T17:32:48.592Z,5.56
2022-11-28T17:35:24.304Z,5.47
2022-11-28T17:37:52.454Z,5.40
2022-11-28T17:40:36.888Z,5.34
2022-11-28T17:43:05.305Z,5.27
2022-11-28T17:45:35.673Z,5.20
2022-11-28T17:48:03.711Z,5.18
2022-11-28T17:50:31.752Z,5.18
2022-11-28T17:52:59.783Z,5.18
2022-11-28T17:55:29.343Z,5.20
2022-11-28T17:57:57.570Z,5.18
2022-11-28T18:00:26.079Z,5.17
2022-11-28T18:02:55.483Z,5.17
2022-11-28T18:05:24.023Z,5.16
2022-11-28T18:07:51.837Z,5.13
2022-11-28T18:10:20.076Z,5.10
2022-11-28T18:12:49.341Z,5.09
2022-11-28T18:15:17.320Z,5.11
2022-11-28T18:17:46.185Z,5.08
2022-11-28T18:20:14.267Z,5.08
2022-11-28T18:22:42.695Z,5.08
2022-11-28T18:25:11.271Z,5.08
2022-11-28T18:27:39.529Z,5.05
2022-11-28T18:30:08.645Z,5.00
2022-11-28T18:32:37.137Z,4.97
2022-11-28T18:35:06.168Z,4.94
2022-11-28T18:37:34.910Z,4.90
2022-11-28T18:40:08.930Z,4.89
2022-11-28T18:42:37.431Z,4.90
2022-11-28T18:45:06.162Z,4.88
2022-11-28T18:47:35.604Z,4.89
2022-11-28T18:50:04.065Z,4.91
2022-11-28T18:52:32.015Z,4.90
2022-11-28T18:55:00.200Z,4.89
2022-11-28T18:57:32.889Z,4.85
2022-11-28T19:00:01.456Z,4.84
2022-11-28T19:02:30.355Z,4.87
2022-11-28T19:04:58.622Z,4.88
2022-11-28T19:07:27.803Z,4.88
2022-11-28T19:09:55.877Z,4.86
2022-11-28T19:12:23.904Z,4.83
2022-11-28T19:14:54.141Z,4.82
2022-11-28T19:17:25.336Z,4.78
2022-11-28T19:19:53.298Z,4.74
2022-11-28T19:22:22.573Z,4.72
2022-11-28T19:24:50.701Z,4.71
2022-11-28T19:27:18.947Z,4.70
2022-11-28T19:29:47.099Z,4.69
2022-11-28T19:32:17.044Z,4.69
2022-11-28T19:34:45.256Z,4.66
2022-11-28T19:37:16.113Z,4.64
2022-11-28T19:39:44.897Z,4.60
2022-11-28T19:42:13.415Z,4.60
2022-11-28T19:44:41.467Z,4.64
2022-11-28T19:47:09.772Z,4.67
2022-11-28T19:49:38.828Z,4.66
2022-11-28T19:52:07.611Z,4.65
2022-11-28T19:54:35.610Z,4.65
2022-11-28T19:57:04.289Z,4.63
2022-11-28T19:59:32.138Z,4.63
2022-11-28T20:02:01.011Z,4.61
2022-11-28T20:04:29.271Z,4.65
2022-11-28T20:06:57.724Z,4.62
2022-11-28T20:09:26.831Z,4.59
2022-11-28T20:11:55.364Z,4.56
2022-11-28T20:14:24.758Z,4.59
2022-11-28T20:16:53.975Z,4.62
2022-11-28T20:19:22.851Z,4.65
2022-11-28T20:21:50.926Z,4.69
2022-11-28T20:24:18.887Z,4.71
2022-11-28T20:26:47.716Z,4.73
2022-11-28T20:29:18.112Z,4.73
2022-11-28T20:31:47.923Z,4.74
2022-11-28T20:34:19.725Z,4.71
2022-11-28T20:36:52.317Z,4.68
2022-11-28T20:39:20.843Z,4.63
2022-11-28T20:41:48.898Z,4.60
2022-11-28T20:44:18.797Z,4.56
2022-11-28T20:46:47.172Z,4.53
2022-11-28T20:49:15.673Z,4.52
2022-11-28T20:51:43.873Z,4.52
2022-11-28T20:54:13.561Z,4.53
2022-11-28T20:57:12.842Z,4.53
2022-11-28T20:59:31.242Z,4.53
2022-11-28T21:01:59.381Z,4.53
2022-11-28T21:04:27.741Z,4.54
2022-11-28T21:06:55.931Z,4.55
2022-11-28T21:09:24.380Z,4.58
2022-11-28T21:11:59.836Z,4.63
2022-11-28T21:14:28.929Z,4.65
2022-11-28T21:16:58.206Z,4.68
2022-11-28T21:19:26.958Z,4.72
2022-11-28T21:21:55.189Z,4.75
2022-11-28T21:24:23.732Z,4.73
2022-11-28T21:26:54.540Z,4.73
2022-11-28T21:29:23.649Z,4.75
2022-11-28T21:31:53.255Z,4.74
2022-11-28T21:34:22.507Z,4.72
2022-11-28T21:36:50.893Z,4.73
2022-11-28T21:39:20.956Z,4.69
2022-11-28T21:41:51.202Z,4.66
2022-11-28T21:44:19.772Z,4.68
2022-11-28T21:46:47.628Z,4.71
2022-11-28T21:49:15.518Z,4.77
2022-11-28T21:51:43.733Z,4.79
2022-11-28T21:54:12.606Z,4.82
2022-11-28T21:56:41.039Z,4.86
2022-11-28T21:59:09.462Z,4.91
2022-11-28T22:01:37.384Z,4.92
2022-11-28T22:04:06.053Z,4.90
2022-11-28T22:06:34.056Z,4.89
2022-11-28T22:09:09.169Z,4.92
2022-11-28T22:11:39.317Z,4.93
2022-11-28T22:14:07.183Z,4.92
2022-11-28T22:16:35.982Z,4.94
2022-11-28T22:19:04.323Z,4.95
2022-11-28T22:24:21.580Z,4.91
2022-11-28T22:26:49.923Z,4.89
2022-11-28T22:29:18.956Z,4.91
2022-11-28T22:31:47.111Z,4.92
2022-11-28T22:34:15.519Z,4.92
2022-11-28T22:36:43.943Z,4.95
2022-11-28T22:39:12.294Z,4.98
2022-11-28T22:41:40.512Z,4.99
2022-11-28T22:44:10.296Z,5.00
2022-11-28T22:46:38.867Z,5.05
2022-11-28T22:49:08.266Z,5.05
2022-11-28T22:51:36.115Z,4.99
2022-11-28T22:54:05.019Z,4.97
2022-11-28T22:56:34.150Z,4.93
2022-11-28T22:59:04.920Z,4.88
2022-11-28T23:01:34.717Z,4.81
2022-11-28T23:04:02.647Z,4.77
2022-11-28T23:06:33.825Z,4.72
2022-11-28T23:09:06.792Z,4.68
2022-11-28T23:11:36.865Z,4.61
2022-11-28T23:14:06.955Z,4.57
2022-11-28T23:16:38.211Z,4.58
2022-11-28T23:19:11.138Z,4.59
2022-11-28T23:21:40.834Z,4.59
2022-11-28T23:24:17.435Z,4.62
2022-11-28T23:26:47.906Z,4.67
2022-11-28T23:29:16.226Z,4.74
2022-11-28T23:31:46.875Z,4.78
2022-11-28T23:34:15.637Z,4.81
2022-11-28T23:36:46.847Z,4.84
2022-11-28T23:39:20.687Z,4.86
2022-11-28T23:41:50.001Z,4.86
2022-11-28T23:44:19.631Z,4.84
2022-11-28T23:46:48.353Z,4.80
2022-11-28T23:49:16.555Z,4.77
2022-11-28T23:51:44.462Z,4.73
2022-11-28T23:54:12.743Z,4.68
2022-11-28T23:56:41.824Z,4.65
2022-11-28T23:59:11.014Z,4.64
